sensor_id;sensor_type;location;lat;lon;timestamp;pressure;altitude;pressure_sealevel;temperature;humidity
61086;BME280;46967;48.876;2.136;2023-04-03T00:01:11;102482.88;;;6.69;85.43
61086;BME280;46967;48.876;2.136;2023-04-03T00:03:36;102476.84;;;6.67;84.89
61086;BME280;46967;48.876;2.136;2023-04-03T00:06:03;102490.66;;;6.72;84.72
61086;BME280;46967;48.876;2.136;2023-04-03T00:08:30;102486.38;;;6.71;84.61
61086;BME280;46967;48.876;2.136;2023-04-03T00:10:58;102483.53;;;6.52;85.13
61086;BME280;46967;48.876;2.136;2023-04-03T00:13:24;102489.53;;;6.51;85.30
61086;BME280;46967;48.876;2.136;2023-04-03T00:15:50;102487.72;;;6.44;85.45
61086;BME280;46967;48.876;2.136;2023-04-03T00:18:15;102492.22;;;6.59;85.30
61086;BME280;46967;48.876;2.136;2023-04-03T00:20:41;102487.91;;;6.58;85.09
61086;BME280;46967;48.876;2.136;2023-04-03T00:23:06;102488.88;;;6.66;84.91
61086;BME280;46967;48.876;2.136;2023-04-03T00:25:32;102488.75;;;6.57;85.07
61086;BME280;46967;48.876;2.136;2023-04-03T00:27:57;102485.28;;;6.55;85.37
61086;BME280;46967;48.876;2.136;2023-04-03T00:30:23;102490.41;;;6.52;85.09
61086;BME280;46967;48.876;2.136;2023-04-03T00:32:49;102493.00;;;6.52;85.51
61086;BME280;46967;48.876;2.136;2023-04-03T00:35:14;102477.53;;;6.53;85.33
61086;BME280;46967;48.876;2.136;2023-04-03T00:37:43;102486.91;;;6.50;84.96
61086;BME280;46967;48.876;2.136;2023-04-03T00:40:10;102484.22;;;6.39;85.65
61086;BME280;46967;48.876;2.136;2023-04-03T00:42:37;102482.59;;;6.46;85.32
61086;BME280;46967;48.876;2.136;2023-04-03T00:47:29;102480.88;;;6.48;85.66
61086;BME280;46967;48.876;2.136;2023-04-03T00:49:55;102486.97;;;6.53;85.17
61086;BME280;46967;48.876;2.136;2023-04-03T00:52:25;102486.94;;;6.51;85.57
61086;BME280;46967;48.876;2.136;2023-04-03T00:54:54;102486.16;;;6.56;85.18
61086;BME280;46967;48.876;2.136;2023-04-03T00:57:22;102487.88;;;6.55;85.52
61086;BME280;46967;48.876;2.136;2023-04-03T00:59:55;102476.72;;;6.59;85.28
61086;BME280;46967;48.876;2.136;2023-04-03T01:02:22;102481.88;;;6.58;85.55
61086;BME280;46967;48.876;2.136;2023-04-03T01:04:47;102474.19;;;6.61;85.62
61086;BME280;46967;48.876;2.136;2023-04-03T01:07:18;102476.72;;;6.58;85.82
61086;BME280;46967;48.876;2.136;2023-04-03T01:09:48;102479.19;;;6.50;85.92
61086;BME280;46967;48.876;2.136;2023-04-03T01:12:22;102479.09;;;6.44;86.23
61086;BME280;46967;48.876;2.136;2023-04-03T01:14:51;102478.25;;;6.43;86.83
61086;BME280;46967;48.876;2.136;2023-04-03T01:23:19;102475.53;;;6.35;87.77
61086;BME280;46967;48.876;2.136;2023-04-03T01:25:50;102477.28;;;6.37;87.59
61086;BME280;46967;48.876;2.136;2023-04-03T01:28:19;102478.16;;;6.39;87.41
61086;BME280;46967;48.876;2.136;2023-04-03T01:30:50;102470.53;;;6.45;87.40
61086;BME280;46967;48.876;2.136;2023-04-03T01:33:18;102466.16;;;6.39;87.36
61086;BME280;46967;48.876;2.136;2023-04-03T01:35:43;102463.50;;;6.34;87.74
61086;BME280;46967;48.876;2.136;2023-04-03T01:38:09;102468.69;;;6.34;87.46
61086;BME280;46967;48.876;2.136;2023-04-03T01:40:35;102455.75;;;6.33;87.30
61086;BME280;46967;48.876;2.136;2023-04-03T01:43:01;102460.06;;;6.35;87.35
61086;BME280;46967;48.876;2.136;2023-04-03T01:45:26;102462.59;;;6.32;86.92
61086;BME280;46967;48.876;2.136;2023-04-03T01:47:51;102455.75;;;6.33;86.70
61086;BME280;46967;48.876;2.136;2023-04-03T01:50:17;102447.09;;;6.29;86.87
61086;BME280;46967;48.876;2.136;2023-04-03T01:52:42;102454.91;;;6.35;86.57
61086;BME280;46967;48.876;2.136;2023-04-03T01:55:08;102447.13;;;6.32;86.14
61086;BME280;46967;48.876;2.136;2023-04-03T01:57:33;102451.44;;;6.32;86.30
61086;BME280;46967;48.876;2.136;2023-04-03T01:59:59;102453.09;;;6.28;86.88
61086;BME280;46967;48.876;2.136;2023-04-03T02:02:24;102454.88;;;6.32;86.39
61086;BME280;46967;48.876;2.136;2023-04-03T02:04:49;102460.94;;;6.34;86.32
61086;BME280;46967;48.876;2.136;2023-04-03T02:07:15;102456.59;;;6.32;86.68
61086;BME280;46967;48.876;2.136;2023-04-03T02:09:40;102452.19;;;6.25;86.97
61086;BME280;46967;48.876;2.136;2023-04-03T02:12:06;102463.44;;;6.30;86.61
61086;BME280;46967;48.876;2.136;2023-04-03T02:14:31;102458.25;;;6.28;85.99
61086;BME280;46967;48.876;2.136;2023-04-03T02:16:56;102460.06;;;6.34;86.35
61086;BME280;46967;48.876;2.136;2023-04-03T02:19:22;102456.59;;;6.32;86.19
61086;BME280;46967;48.876;2.136;2023-04-03T02:21:47;102457.53;;;6.39;85.82
61086;BME280;46967;48.876;2.136;2023-04-03T02:24:12;102458.41;;;6.41;85.71
61086;BME280;46967;48.876;2.136;2023-04-03T02:26:38;102455.81;;;6.38;85.56
61086;BME280;46967;48.876;2.136;2023-04-03T02:29:03;102466.16;;;6.39;85.84
61086;BME280;46967;48.876;2.136;2023-04-03T02:31:28;102461.97;;;6.47;85.16
61086;BME280;46967;48.876;2.136;2023-04-03T02:33:54;102467.88;;;6.40;85.37
61086;BME280;46967;48.876;2.136;2023-04-03T02:36:19;102465.19;;;6.32;85.48
61086;BME280;46967;48.876;2.136;2023-04-03T02:38:45;102464.31;;;6.30;85.58
61086;BME280;46967;48.876;2.136;2023-04-03T02:41:11;102465.03;;;6.23;85.75
61086;BME280;46967;48.876;2.136;2023-04-03T02:43:38;102471.88;;;6.20;85.38
61086;BME280;46967;48.876;2.136;2023-04-03T02:46:04;102468.38;;;6.14;86.13
61086;BME280;46967;48.876;2.136;2023-04-03T02:48:30;102465.03;;;6.22;86.07
61086;BME280;46967;48.876;2.136;2023-04-03T02:50:55;102474.47;;;6.21;86.14
61086;BME280;46967;48.876;2.136;2023-04-03T02:53:21;102461.66;;;6.26;86.04
61086;BME280;46967;48.876;2.136;2023-04-03T02:55:47;102470.31;;;6.31;86.08
61086;BME280;46967;48.876;2.136;2023-04-03T02:58:13;102466.06;;;6.31;86.35
61086;BME280;46967;48.876;2.136;2023-04-03T03:00:38;102460.88;;;6.31;86.62
61086;BME280;46967;48.876;2.136;2023-04-03T03:03:04;102460.91;;;6.33;86.29
61086;BME280;46967;48.876;2.136;2023-04-03T03:05:30;102462.59;;;6.32;85.94
61086;BME280;46967;48.876;2.136;2023-04-03T03:07:56;102461.66;;;6.26;85.30
61086;BME280;46967;48.876;2.136;2023-04-03T03:10:22;102458.13;;;6.19;84.54
61086;BME280;46967;48.876;2.136;2023-04-03T03:12:48;102452.13;;;6.19;84.59
61086;BME280;46967;48.876;2.136;2023-04-03T03:15:14;102453.84;;;6.21;84.31
61086;BME280;46967;48.876;2.136;2023-04-03T03:17:41;102459.00;;;6.21;83.98
61086;BME280;46967;48.876;2.136;2023-04-03T03:20:07;102453.97;;;6.29;83.70
61086;BME280;46967;48.876;2.136;2023-04-03T03:22:33;102455.66;;;6.27;83.73
61086;BME280;46967;48.876;2.136;2023-04-03T03:24:59;102452.28;;;6.32;83.02
61086;BME280;46967;48.876;2.136;2023-04-03T03:27:24;102452.28;;;6.31;83.35
61086;BME280;46967;48.876;2.136;2023-04-03T03:29:50;102456.53;;;6.29;82.72
61086;BME280;46967;48.876;2.136;2023-04-03T03:32:15;102450.47;;;6.24;83.44
61086;BME280;46967;48.876;2.136;2023-04-03T03:34:40;102454.81;;;6.28;84.09
61086;BME280;46967;48.876;2.136;2023-04-03T03:37:06;102453.13;;;6.30;83.57
61086;BME280;46967;48.876;2.136;2023-04-03T03:39:31;102452.34;;;6.37;82.80
61086;BME280;46967;48.876;2.136;2023-04-03T03:41:56;102448.84;;;6.30;82.37
61086;BME280;46967;48.876;2.136;2023-04-03T03:44:22;102459.16;;;6.32;81.82
61086;BME280;46967;48.876;2.136;2023-04-03T03:46:47;102453.13;;;6.30;81.39
61086;BME280;46967;48.876;2.136;2023-04-03T03:49:12;102448.66;;;6.20;81.76
61086;BME280;46967;48.876;2.136;2023-04-03T03:51:39;102451.28;;;6.21;81.67
61086;BME280;46967;48.876;2.136;2023-04-03T03:54:05;102449.63;;;6.26;81.30
61086;BME280;46967;48.876;2.136;2023-04-03T03:56:31;102447.00;;;6.23;80.11
61086;BME280;46967;48.876;2.136;2023-04-03T03:58:56;102449.50;;;6.17;80.07
61086;BME280;46967;48.876;2.136;2023-04-03T04:01:22;102450.38;;;6.18;79.38
61086;BME280;46967;48.876;2.136;2023-04-03T04:03:48;102446.97;;;6.19;78.76
61086;BME280;46967;48.876;2.136;2023-04-03T04:06:14;102442.59;;;6.14;79.10
61086;BME280;46967;48.876;2.136;2023-04-03T04:08:39;102454.59;;;6.12;79.61
61086;BME280;46967;48.876;2.136;2023-04-03T04:11:05;102451.97;;;6.09;79.43
61086;BME280;46967;48.876;2.136;2023-04-03T04:13:30;102454.56;;;6.11;78.89
61086;BME280;46967;48.876;2.136;2023-04-03T04:15:55;102459.81;;;6.17;79.14
61086;BME280;46967;48.876;2.136;2023-04-03T04:18:21;102458.97;;;6.20;78.72
61086;BME280;46967;48.876;2.136;2023-04-03T04:20:47;102458.09;;;6.18;78.01
61086;BME280;46967;48.876;2.136;2023-04-03T04:23:13;102451.19;;;6.15;77.92
61086;BME280;46967;48.876;2.136;2023-04-03T04:25:38;102448.59;;;6.15;77.68
61086;BME280;46967;48.876;2.136;2023-04-03T04:28:04;102448.41;;;6.00;77.77
61086;BME280;46967;48.876;2.136;2023-04-03T04:30:29;102444.94;;;5.99;78.15
61086;BME280;46967;48.876;2.136;2023-04-03T04:32:54;102439.84;;;6.04;78.48
61086;BME280;46967;48.876;2.136;2023-04-03T04:35:20;102445.94;;;6.09;78.61
61086;BME280;46967;48.876;2.136;2023-04-03T04:37:45;102449.44;;;6.12;78.36
61086;BME280;46967;48.876;2.136;2023-04-03T04:40:11;102450.38;;;6.18;77.86
61086;BME280;46967;48.876;2.136;2023-04-03T04:42:36;102447.78;;;6.18;77.65
61086;BME280;46967;48.876;2.136;2023-04-03T04:45:02;102451.25;;;6.20;77.83
61086;BME280;46967;48.876;2.136;2023-04-03T04:47:28;102455.63;;;6.24;78.09
61086;BME280;46967;48.876;2.136;2023-04-03T04:49:53;102452.19;;;6.26;77.11
61086;BME280;46967;48.876;2.136;2023-04-03T04:52:19;102453.94;;;6.27;76.98
61086;BME280;46967;48.876;2.136;2023-04-03T04:54:44;102444.44;;;6.25;76.72
61086;BME280;46967;48.876;2.136;2023-04-03T04:57:10;102448.75;;;6.26;75.70
61086;BME280;46967;48.876;2.136;2023-04-03T04:59:35;102455.53;;;6.18;75.74
61086;BME280;46967;48.876;2.136;2023-04-03T05:02:01;102452.94;;;6.16;75.10
61086;BME280;46967;48.876;2.136;2023-04-03T05:04:26;102453.03;;;6.22;75.42
61086;BME280;46967;48.876;2.136;2023-04-03T05:06:51;102450.31;;;6.14;75.04
61086;BME280;46967;48.876;2.136;2023-04-03T05:09:17;102459.81;;;6.15;75.76
61086;BME280;46967;48.876;2.136;2023-04-03T05:11:43;102458.84;;;6.10;75.07
61086;BME280;46967;48.876;2.136;2023-04-03T05:14:08;102456.25;;;6.10;74.83
61086;BME280;46967;48.876;2.136;2023-04-03T05:16:34;102457.16;;;6.11;75.18
61086;BME280;46967;48.876;2.136;2023-04-03T05:18:59;102459.72;;;6.11;74.96
61086;BME280;46967;48.876;2.136;2023-04-03T05:21:25;102460.50;;;6.07;74.99
61086;BME280;46967;48.876;2.136;2023-04-03T05:23:51;102449.34;;;6.06;74.00
61086;BME280;46967;48.876;2.136;2023-04-03T05:26:17;102447.50;;;5.99;74.33
61086;BME280;46967;48.876;2.136;2023-04-03T05:28:42;102451.81;;;6.00;73.73
61086;BME280;46967;48.876;2.136;2023-04-03T05:31:07;102450.88;;;5.95;73.79
61086;BME280;46967;48.876;2.136;2023-04-03T05:33:33;102456.03;;;5.95;73.27
61086;BME280;46967;48.876;2.136;2023-04-03T05:36:03;102459.38;;;5.91;73.66
61086;BME280;46967;48.876;2.136;2023-04-03T05:38:29;102462.94;;;5.97;73.96
61086;BME280;46967;48.876;2.136;2023-04-03T05:40:54;102467.16;;;5.94;72.97
61086;BME280;46967;48.876;2.136;2023-04-03T05:43:20;102465.38;;;5.90;73.20
61086;BME280;46967;48.876;2.136;2023-04-03T05:45:47;102464.72;;;6.00;72.45
61086;BME280;46967;48.876;2.136;2023-04-03T05:48:12;102456.81;;;5.92;72.74
61086;BME280;46967;48.876;2.136;2023-04-03T05:50:38;102461.91;;;5.88;71.37
61086;BME280;46967;48.876;2.136;2023-04-03T05:53:07;102462.69;;;5.82;70.77
61086;BME280;46967;48.876;2.136;2023-04-03T05:55:37;102459.81;;;5.65;70.05
61086;BME280;46967;48.876;2.136;2023-04-03T05:58:02;102457.22;;;5.63;70.30
61086;BME280;46967;48.876;2.136;2023-04-03T06:00:28;102461.56;;;5.68;69.56
61086;BME280;46967;48.876;2.136;2023-04-03T06:02:53;102468.44;;;5.67;69.29
61086;BME280;46967;48.876;2.136;2023-04-03T06:05:19;102469.25;;;5.65;69.31
61086;BME280;46967;48.876;2.136;2023-04-03T06:07:44;102466.75;;;5.69;69.81
61086;BME280;46967;48.876;2.136;2023-04-03T06:10:11;102476.19;;;5.69;69.32
61086;BME280;46967;48.876;2.136;2023-04-03T06:12:37;102471.16;;;5.75;69.19
61086;BME280;46967;48.876;2.136;2023-04-03T06:15:02;102472.91;;;5.77;68.55
61086;BME280;46967;48.876;2.136;2023-04-03T06:17:28;102467.69;;;5.73;69.17
61086;BME280;46967;48.876;2.136;2023-04-03T06:19:54;102468.59;;;5.76;69.23
61086;BME280;46967;48.876;2.136;2023-04-03T06:22:20;102473.00;;;5.85;68.69
61086;BME280;46967;48.876;2.136;2023-04-03T06:24:46;102478.22;;;5.88;68.66
61086;BME280;46967;48.876;2.136;2023-04-03T06:27:12;102479.09;;;5.87;68.32
61086;BME280;46967;48.876;2.136;2023-04-03T06:29:37;102477.97;;;5.71;68.17
61086;BME280;46967;48.876;2.136;2023-04-03T06:32:03;102477.84;;;5.65;68.38
61086;BME280;46967;48.876;2.136;2023-04-03T06:34:28;102478.81;;;5.72;68.81
61086;BME280;46967;48.876;2.136;2023-04-03T06:36:53;102475.47;;;5.76;68.81
61086;BME280;46967;48.876;2.136;2023-04-03T06:39:20;102477.22;;;5.78;68.24
61086;BME280;46967;48.876;2.136;2023-04-03T06:41:48;102480.88;;;5.93;68.05
61086;BME280;46967;48.876;2.136;2023-04-03T06:44:14;102477.19;;;5.77;67.99
61086;BME280;46967;48.876;2.136;2023-04-03T06:46:41;102479.06;;;5.86;68.15
61086;BME280;46967;48.876;2.136;2023-04-03T06:49:07;102485.00;;;5.83;67.54
61086;BME280;46967;48.876;2.136;2023-04-03T06:51:33;102474.06;;;5.95;67.56
61086;BME280;46967;48.876;2.136;2023-04-03T06:54:01;102472.47;;;6.02;67.26
61086;BME280;46967;48.876;2.136;2023-04-03T06:56:27;102474.97;;;5.97;66.32
61086;BME280;46967;48.876;2.136;2023-04-03T06:58:53;102475.66;;;5.88;66.60
61086;BME280;46967;48.876;2.136;2023-04-03T07:01:25;102479.16;;;5.92;67.50
61086;BME280;46967;48.876;2.136;2023-04-03T07:03:51;102476.81;;;6.06;66.96
61086;BME280;46967;48.876;2.136;2023-04-03T07:06:18;102477.69;;;6.06;66.29
61086;BME280;46967;48.876;2.136;2023-04-03T07:08:44;102476.72;;;5.98;67.45
61086;BME280;46967;48.876;2.136;2023-04-03T07:11:11;102470.72;;;6.01;67.31
61086;BME280;46967;48.876;2.136;2023-04-03T07:13:37;102474.38;;;6.15;66.65
61086;BME280;46967;48.876;2.136;2023-04-03T07:16:03;102471.88;;;6.20;66.40
61086;BME280;46967;48.876;2.136;2023-04-03T07:18:30;102481.34;;;6.21;66.39
61086;BME280;46967;48.876;2.136;2023-04-03T07:20:56;102476.47;;;6.39;66.29
61086;BME280;46967;48.876;2.136;2023-04-03T07:23:22;102480.84;;;6.45;66.62
61086;BME280;46967;48.876;2.136;2023-04-03T07:25:48;102480.91;;;6.49;67.06
61086;BME280;46967;48.876;2.136;2023-04-03T07:28:16;102478.06;;;6.31;66.76
61086;BME280;46967;48.876;2.136;2023-04-03T07:30:45;102482.66;;;6.50;67.03
61086;BME280;46967;48.876;2.136;2023-04-03T07:33:12;102476.66;;;6.53;66.13
61086;BME280;46967;48.876;2.136;2023-04-03T07:35:38;102472.41;;;6.55;66.60
61086;BME280;46967;48.876;2.136;2023-04-03T07:38:04;102494.06;;;6.68;65.90
61086;BME280;46967;48.876;2.136;2023-04-03T07:40:29;102486.25;;;6.63;64.68
61086;BME280;46967;48.876;2.136;2023-04-03T07:42:55;102487.16;;;6.67;66.49
61086;BME280;46967;48.876;2.136;2023-04-03T07:45:22;102485.66;;;6.83;65.77
61086;BME280;46967;48.876;2.136;2023-04-03T07:47:48;102479.53;;;6.76;65.83
61086;BME280;46967;48.876;2.136;2023-04-03T07:50:13;102490.84;;;6.86;66.62
61086;BME280;46967;48.876;2.136;2023-04-03T07:52:38;102484.81;;;6.84;66.54
61086;BME280;46967;48.876;2.136;2023-04-03T07:55:04;102487.47;;;6.90;66.19
61086;BME280;46967;48.876;2.136;2023-04-03T07:57:29;102495.09;;;6.82;66.01
61086;BME280;46967;48.876;2.136;2023-04-03T07:59:55;102489.16;;;6.89;66.30
61086;BME280;46967;48.876;2.136;2023-04-03T08:02:20;102490.25;;;7.08;66.13
61086;BME280;46967;48.876;2.136;2023-04-03T08:04:45;102491.91;;;7.02;65.65
61086;BME280;46967;48.876;2.136;2023-04-03T08:07:11;102493.69;;;7.06;65.31
61086;BME280;46967;48.876;2.136;2023-04-03T08:09:36;102486.00;;;7.11;65.07
61086;BME280;46967;48.876;2.136;2023-04-03T08:12:02;102493.94;;;7.32;66.06
61086;BME280;46967;48.876;2.136;2023-04-03T08:14:31;102487.06;;;7.34;65.03
61086;BME280;46967;48.876;2.136;2023-04-03T08:16:59;102482.91;;;7.44;64.20
61086;BME280;46967;48.876;2.136;2023-04-03T08:19:26;102484.69;;;7.53;64.15
61086;BME280;46967;48.876;2.136;2023-04-03T08:21:53;102481.41;;;7.69;64.18
61086;BME280;46967;48.876;2.136;2023-04-03T08:24:19;102486.59;;;7.69;63.04
61086;BME280;46967;48.876;2.136;2023-04-03T08:26:45;102480.41;;;7.52;62.88
61086;BME280;46967;48.876;2.136;2023-04-03T08:29:10;102477.88;;;7.61;62.56
61086;BME280;46967;48.876;2.136;2023-04-03T08:31:35;102477.94;;;7.67;62.89
61086;BME280;46967;48.876;2.136;2023-04-03T08:34:01;102478.03;;;7.79;64.23
61086;BME280;46967;48.876;2.136;2023-04-03T08:36:28;102482.34;;;7.77;61.76
61086;BME280;46967;48.876;2.136;2023-04-03T08:38:55;102478.81;;;7.72;62.44
61086;BME280;46967;48.876;2.136;2023-04-03T08:44:01;102480.81;;;8.03;62.83
61086;BME280;46967;48.876;2.136;2023-04-03T08:46:42;102480.03;;;8.14;61.90
61086;BME280;46967;48.876;2.136;2023-04-03T08:49:18;102484.41;;;8.22;61.72
61086;BME280;46967;48.876;2.136;2023-04-03T08:51:49;102482.69;;;8.24;62.19
61086;BME280;46967;48.876;2.136;2023-04-03T08:54:27;102480.97;;;8.24;59.79
61086;BME280;46967;48.876;2.136;2023-04-03T08:56:54;102478.47;;;8.40;60.52
61086;BME280;46967;48.876;2.136;2023-04-03T08:59:26;102477.53;;;8.28;59.28
61086;BME280;46967;48.876;2.136;2023-04-03T09:01:53;102467.34;;;8.50;60.07
61086;BME280;46967;48.876;2.136;2023-04-03T09:04:19;102474.28;;;8.57;59.35
61086;BME280;46967;48.876;2.136;2023-04-03T09:06:57;102474.41;;;8.88;59.27
61086;BME280;46967;48.876;2.136;2023-04-03T09:09:41;102469.25;;;8.94;57.26
61086;BME280;46967;48.876;2.136;2023-04-03T09:12:16;102467.53;;;8.85;56.49
61086;BME280;46967;48.876;2.136;2023-04-03T09:14:46;102461.41;;;8.69;58.00
61086;BME280;46967;48.876;2.136;2023-04-03T09:19:56;102466.66;;;8.82;56.54
61086;BME280;46967;48.876;2.136;2023-04-03T09:22:25;102463.19;;;8.84;56.70
61086;BME280;46967;48.876;2.136;2023-04-03T09:25:17;102469.19;;;8.73;59.26
61086;BME280;46967;48.876;2.136;2023-04-03T09:27:43;102466.50;;;8.51;57.56
61086;BME280;46967;48.876;2.136;2023-04-03T09:30:23;102475.78;;;8.24;57.39
61086;BME280;46967;48.876;2.136;2023-04-03T09:32:52;102479.16;;;8.11;58.07
61086;BME280;46967;48.876;2.136;2023-04-03T09:35:24;102476.56;;;8.12;58.63
61086;BME280;46967;48.876;2.136;2023-04-03T09:37:58;102482.63;;;8.16;59.12
61086;BME280;46967;48.876;2.136;2023-04-03T09:42:51;102482.97;;;8.70;58.15
61086;BME280;46967;48.876;2.136;2023-04-03T09:45:34;102484.75;;;8.77;60.19
61086;BME280;46967;48.876;2.136;2023-04-03T09:48:25;102480.41;;;8.73;58.00
61086;BME280;46967;48.876;2.136;2023-04-03T09:53:37;102481.22;;;8.58;57.93
61086;BME280;46967;48.876;2.136;2023-04-03T09:56:27;102483.84;;;8.72;57.75
61086;BME280;46967;48.876;2.136;2023-04-03T10:01:30;102477.94;;;9.07;57.54
61086;BME280;46967;48.876;2.136;2023-04-03T10:09:27;102465.91;;;9.35;54.62
61086;BME280;46967;48.876;2.136;2023-04-03T10:14:28;102465.03;;;9.22;56.62
61086;BME280;46967;48.876;2.136;2023-04-03T10:22:25;102460.66;;;8.98;56.00
61086;BME280;46967;48.876;2.136;2023-04-03T10:35:16;102442.59;;;9.89;54.85
61086;BME280;46967;48.876;2.136;2023-04-03T10:38:04;102437.41;;;10.12;52.30
61086;BME280;46967;48.876;2.136;2023-04-03T10:56:43;102409.47;;;10.87;50.74
61086;BME280;46967;48.876;2.136;2023-04-03T10:59:21;102405.03;;;11.06;51.17
61086;BME280;46967;48.876;2.136;2023-04-03T11:01:54;102400.63;;;11.14;48.73
61086;BME280;46967;48.876;2.136;2023-04-03T11:04:22;102403.19;;;11.20;50.59
61086;BME280;46967;48.876;2.136;2023-04-03T11:06:59;102392.03;;;11.08;50.12
61086;BME280;46967;48.876;2.136;2023-04-03T11:09:28;102390.13;;;11.31;50.39
61086;BME280;46967;48.876;2.136;2023-04-03T11:12:02;102387.31;;;11.56;49.53
61086;BME280;46967;48.876;2.136;2023-04-03T11:14:31;102391.69;;;11.49;47.62
61086;BME280;46967;48.876;2.136;2023-04-03T11:17:21;102384.66;;;11.64;47.55
61086;BME280;46967;48.876;2.136;2023-04-03T11:25:13;102389.88;;;11.59;47.29
61086;BME280;46967;48.876;2.136;2023-04-03T11:27:47;102379.38;;;11.73;45.46
61086;BME280;46967;48.876;2.136;2023-04-03T11:35:46;102379.34;;;11.76;45.16
61086;BME280;46967;48.876;2.136;2023-04-03T11:38:26;102377.59;;;11.76;48.09
61086;BME280;46967;48.876;2.136;2023-04-03T11:40:55;102376.72;;;11.77;44.44
61086;BME280;46967;48.876;2.136;2023-04-03T11:43:25;102372.41;;;11.73;46.35
61086;BME280;46967;48.876;2.136;2023-04-03T11:46:04;102366.28;;;11.82;43.95
61086;BME280;46967;48.876;2.136;2023-04-03T11:53:40;102352.22;;;12.02;42.50
61086;BME280;46967;48.876;2.136;2023-04-03T11:56:35;102351.19;;;12.18;45.83
61086;BME280;46967;48.876;2.136;2023-04-03T12:01:53;102353.16;;;12.66;43.92
61086;BME280;46967;48.876;2.136;2023-04-03T12:04:22;102350.38;;;12.78;44.38
61086;BME280;46967;48.876;2.136;2023-04-03T12:09:31;102345.91;;;12.86;43.91
61086;BME280;46967;48.876;2.136;2023-04-03T12:11:58;102344.03;;;12.96;41.57
61086;BME280;46967;48.876;2.136;2023-04-03T12:14:25;102335.19;;;13.05;43.03
61086;BME280;46967;48.876;2.136;2023-04-03T12:16:56;102335.94;;;13.13;41.07
61086;BME280;46967;48.876;2.136;2023-04-03T12:19:37;102328.09;;;13.15;42.07
61086;BME280;46967;48.876;2.136;2023-04-03T12:22:14;102331.78;;;13.01;39.58
61086;BME280;46967;48.876;2.136;2023-04-03T12:24:42;102334.28;;;13.08;41.75
61086;BME280;46967;48.876;2.136;2023-04-03T12:27:40;102320.75;;;13.38;43.01
61086;BME280;46967;48.876;2.136;2023-04-03T12:30:14;102328.81;;;13.25;41.22
61086;BME280;46967;48.876;2.136;2023-04-03T12:33:04;102328.47;;;13.45;40.59
61086;BME280;46967;48.876;2.136;2023-04-03T12:35:46;102332.13;;;13.36;39.22
61086;BME280;46967;48.876;2.136;2023-04-03T12:38:37;102325.94;;;13.40;39.02
61086;BME280;46967;48.876;2.136;2023-04-03T12:44:01;102325.81;;;13.48;38.81
61086;BME280;46967;48.876;2.136;2023-04-03T12:46:38;102311.63;;;13.64;40.61
61086;BME280;46967;48.876;2.136;2023-04-03T12:49:39;102305.84;;;13.93;39.37
61086;BME280;46967;48.876;2.136;2023-04-03T12:52:43;102310.78;;;14.07;39.87
61086;BME280;46967;48.876;2.136;2023-04-03T12:55:20;102306.13;;;14.22;38.79
61086;BME280;46967;48.876;2.136;2023-04-03T12:57:46;102313.91;;;14.25;39.63
61086;BME280;46967;48.876;2.136;2023-04-03T13:02:56;102287.63;;;14.32;39.04
61086;BME280;46967;48.876;2.136;2023-04-03T13:05:23;102280.94;;;14.60;39.42
61086;BME280;46967;48.876;2.136;2023-04-03T13:07:54;102278.34;;;14.58;39.07
61086;BME280;46967;48.876;2.136;2023-04-03T13:10:22;102283.19;;;14.75;37.09
61086;BME280;46967;48.876;2.136;2023-04-03T13:12:58;102279.53;;;14.45;36.74
61086;BME280;46967;48.876;2.136;2023-04-03T13:15:45;102269.19;;;14.40;38.73
61086;BME280;46967;48.876;2.136;2023-04-03T13:18:32;102270.25;;;14.71;39.04
61086;BME280;46967;48.876;2.136;2023-04-03T13:21:14;102273.94;;;14.60;37.58
61086;BME280;46967;48.876;2.136;2023-04-03T13:23:45;102267.22;;;14.50;37.69
61086;BME280;46967;48.876;2.136;2023-04-03T13:26:12;102260.53;;;14.76;39.72
61086;BME280;46967;48.876;2.136;2023-04-03T13:28:40;102258.34;;;14.93;39.47
61086;BME280;46967;48.876;2.136;2023-04-03T13:31:27;102260.00;;;15.30;39.94
61086;BME280;46967;48.876;2.136;2023-04-03T13:34:03;102257.41;;;14.97;37.81
61086;BME280;46967;48.876;2.136;2023-04-03T13:36:31;102255.97;;;14.84;37.26
61086;BME280;46967;48.876;2.136;2023-04-03T13:39:00;102259.03;;;15.01;37.95
61086;BME280;46967;48.876;2.136;2023-04-03T13:41:33;102246.50;;;14.80;37.67
61086;BME280;46967;48.876;2.136;2023-04-03T13:44:23;102249.47;;;15.00;37.38
61086;BME280;46967;48.876;2.136;2023-04-03T13:46:56;102249.78;;;15.23;37.70
61086;BME280;46967;48.876;2.136;2023-04-03T13:49:30;102250.94;;;15.11;37.06
61086;BME280;46967;48.876;2.136;2023-04-03T13:51:56;102247.41;;;15.45;37.96
61086;BME280;46967;48.876;2.136;2023-04-03T13:54:30;102247.69;;;15.67;36.50
61086;BME280;46967;48.876;2.136;2023-04-03T13:56:59;102246.31;;;15.53;37.16
61086;BME280;46967;48.876;2.136;2023-04-03T13:59:38;102239.91;;;15.64;36.41
61086;BME280;46967;48.876;2.136;2023-04-03T14:04:32;102243.16;;;15.73;35.95
61086;BME280;46967;48.876;2.136;2023-04-03T14:06:59;102240.06;;;15.59;35.49
61086;BME280;46967;48.876;2.136;2023-04-03T14:09:26;102232.75;;;15.39;36.44
61086;BME280;46967;48.876;2.136;2023-04-03T14:11:54;102236.06;;;15.46;37.24
61086;BME280;46967;48.876;2.136;2023-04-03T14:14:23;102238.84;;;15.39;36.94
61086;BME280;46967;48.876;2.136;2023-04-03T14:16:56;102228.25;;;15.75;37.04
61086;BME280;46967;48.876;2.136;2023-04-03T14:19:33;102225.41;;;15.85;36.77
61086;BME280;46967;48.876;2.136;2023-04-03T14:22:00;102234.38;;;15.74;36.91
61086;BME280;46967;48.876;2.136;2023-04-03T14:24:26;102226.91;;;15.92;36.39
61086;BME280;46967;48.876;2.136;2023-04-03T14:26:53;102222.59;;;16.19;34.95
61086;BME280;46967;48.876;2.136;2023-04-03T14:29:20;102219.19;;;16.45;35.47
61086;BME280;46967;48.876;2.136;2023-04-03T14:31:47;102213.66;;;15.98;35.90
61086;BME280;46967;48.876;2.136;2023-04-03T14:34:14;102207.91;;;16.15;35.77
61086;BME280;46967;48.876;2.136;2023-04-03T14:36:42;102213.38;;;16.36;35.25